createdAt,value
2023-02-08T00:01:48.295Z,6.30
2023-02-08T00:04:15.043Z,7.88
2023-02-08T00:06:41.733Z,7.00
2023-02-08T00:09:08.993Z,7.30
2023-02-08T00:11:36.256Z,5.55
2023-02-08T00:14:03.343Z,7.68
2023-02-08T00:16:30.121Z,5.60
2023-02-08T00:18:56.724Z,7.75
2023-02-08T00:21:24.581Z,6.07
2023-02-08T00:23:51.219Z,6.38
2023-02-08T00:26:18.011Z,5.63
2023-02-08T00:28:45.162Z,4.35
2023-02-08T00:31:11.831Z,5.22
2023-02-08T00:33:38.474Z,5.13
2023-02-08T00:36:07.977Z,6.80
2023-02-08T00:38:35.017Z,6.05
2023-02-08T00:41:01.821Z,7.28
2023-02-08T00:43:28.405Z,5.28
2023-02-08T00:45:56.384Z,5.78
2023-02-08T00:48:23.050Z,6.78
2023-02-08T00:50:59.523Z,6.55
2023-02-08T00:53:26.125Z,5.60
2023-02-08T00:55:54.355Z,6.68
2023-02-08T00:58:21.849Z,5.45
2023-02-08T01:00:52.477Z,6.07
2023-02-08T01:03:20.242Z,4.55
2023-02-08T01:05:46.953Z,5.25
2023-02-08T01:08:13.683Z,5.75
2023-02-08T01:10:40.778Z,5.35
2023-02-08T01:13:07.591Z,6.30
2023-02-08T01:15:34.269Z,6.20
2023-02-08T01:18:00.869Z,5.95
2023-02-08T01:20:27.478Z,5.57
2023-02-08T01:22:54.039Z,5.38
2023-02-08T01:25:20.654Z,5.32
2023-02-08T01:27:47.338Z,5.95
2023-02-08T01:30:14.222Z,5.32
2023-02-08T01:32:40.853Z,5.35
2023-02-08T01:35:07.713Z,5.78
2023-02-08T01:37:34.328Z,5.63
2023-02-08T01:40:00.889Z,5.18
2023-02-08T01:42:27.845Z,5.18
2023-02-08T01:45:16.349Z,5.53
2023-02-08T01:47:45.250Z,5.63
2023-02-08T01:50:12.456Z,5.88
2023-02-08T01:52:39.362Z,5.18
2023-02-08T01:55:15.195Z,5.00
2023-02-08T01:57:42.997Z,6.22
2023-02-08T02:00:17.270Z,5.75
2023-02-08T02:02:47.567Z,5.13
2023-02-08T02:05:15.825Z,5.47
2023-02-08T02:07:43.171Z,4.57
2023-02-08T02:10:15.564Z,4.18
2023-02-08T02:12:42.720Z,4.70
2023-02-08T02:15:09.822Z,3.55
2023-02-08T02:17:38.993Z,5.10
2023-02-08T02:20:33.053Z,4.97
2023-02-08T02:23:31.267Z,4.80
2023-02-08T02:26:40.821Z,4.30
2023-02-08T02:29:16.055Z,4.25
2023-02-08T02:31:59.619Z,3.95
2023-02-08T02:34:38.742Z,4.95
2023-02-08T02:37:05.503Z,5.20
2023-02-08T02:39:47.111Z,4.22
2023-02-08T02:42:38.715Z,5.18
2023-02-08T02:45:30.235Z,5.90
2023-02-08T02:48:12.799Z,5.03
2023-02-08T02:50:46.761Z,5.43
2023-02-08T02:53:24.989Z,5.78
2023-02-08T02:55:58.487Z,5.35
2023-02-08T02:58:27.571Z,6.15
2023-02-08T03:00:59.944Z,5.80
2023-02-08T03:03:28.650Z,5.47
2023-02-08T03:06:01.154Z,5.35
2023-02-08T03:08:48.976Z,5.15
2023-02-08T03:11:26.343Z,4.55
2023-02-08T03:14:01.566Z,5.00
2023-02-08T03:16:46.995Z,6.28
2023-02-08T03:19:32.420Z,5.10
2023-02-08T03:22:06.810Z,4.47
2023-02-08T03:24:43.547Z,4.43
2023-02-08T03:27:45.221Z,5.28
2023-02-08T03:30:30.600Z,4.85
2023-02-08T03:33:31.746Z,4.07
2023-02-08T03:36:20.172Z,5.05
2023-02-08T03:38:50.796Z,5.63
2023-02-08T03:41:24.659Z,4.88
2023-02-08T03:44:03.536Z,4.75
2023-02-08T03:46:36.458Z,4.70
2023-02-08T03:49:11.135Z,5.05
2023-02-08T03:51:39.395Z,6.07
2023-02-08T03:54:11.263Z,6.35
2023-02-08T03:56:56.594Z,4.93
2023-02-08T03:59:31.097Z,5.28
2023-02-08T04:02:01.406Z,4.25
2023-02-08T04:04:32.694Z,5.68
2023-02-08T04:06:59.765Z,5.50
2023-02-08T04:09:26.807Z,5.38
2023-02-08T04:11:53.396Z,5.50
2023-02-08T04:14:19.936Z,5.60
2023-02-08T04:16:46.777Z,5.63
2023-02-08T04:19:13.609Z,5.28
2023-02-08T04:21:40.431Z,6.05
2023-02-08T04:24:07.153Z,6.03
2023-02-08T04:26:33.750Z,5.80
2023-02-08T04:29:00.597Z,5.70
2023-02-08T04:31:27.555Z,5.22
2023-02-08T04:33:54.154Z,5.05
2023-02-08T04:36:20.767Z,6.07
2023-02-08T04:38:47.387Z,4.82
2023-02-08T04:41:13.956Z,7.07
2023-02-08T04:43:40.533Z,7.00
2023-02-08T04:46:07.490Z,5.85
2023-02-08T04:48:34.090Z,7.70
2023-02-08T04:51:00.694Z,5.57
2023-02-08T04:53:27.642Z,5.55
2023-02-08T04:55:54.574Z,5.43
2023-02-08T04:58:21.571Z,5.72
2023-02-08T05:00:49.269Z,6.57
2023-02-08T05:03:16.332Z,4.25
2023-02-08T05:05:42.963Z,5.68
2023-02-08T05:08:09.629Z,4.50
2023-02-08T05:10:36.322Z,7.07
2023-02-08T05:13:03.074Z,5.57
2023-02-08T05:15:29.905Z,5.35
2023-02-08T05:17:56.777Z,5.43
2023-02-08T05:20:23.403Z,4.82
2023-02-08T05:22:50.217Z,4.82
2023-02-08T05:25:18.169Z,6.65
2023-02-08T05:27:45.137Z,5.88
2023-02-08T05:30:12.272Z,7.32
2023-02-08T05:32:38.959Z,5.93
2023-02-08T05:35:08.160Z,6.47
2023-02-08T05:37:35.103Z,6.10
2023-02-08T05:40:01.772Z,6.43
2023-02-08T05:42:28.564Z,5.13
2023-02-08T05:44:55.186Z,5.30
2023-02-08T05:47:22.024Z,5.63
2023-02-08T05:49:48.683Z,6.07
2023-02-08T05:52:15.377Z,5.97
2023-02-08T05:54:42.039Z,5.32
2023-02-08T05:57:08.814Z,6.10
2023-02-08T05:59:35.850Z,7.07
2023-02-08T06:02:02.476Z,6.88
2023-02-08T06:04:29.221Z,4.53
2023-02-08T06:06:56.075Z,6.03
2023-02-08T06:09:22.738Z,6.15
2023-02-08T06:11:49.893Z,5.22
2023-02-08T06:14:16.578Z,6.47
2023-02-08T06:16:43.600Z,6.25
2023-02-08T06:19:10.274Z,6.93
2023-02-08T06:21:37.129Z,4.85
2023-02-08T06:24:04.173Z,4.80
2023-02-08T06:26:33.348Z,6.88
2023-02-08T06:29:00.818Z,7.35
2023-02-08T06:31:28.736Z,6.53
2023-02-08T06:33:55.413Z,6.65
2023-02-08T06:36:22.347Z,6.88
2023-02-08T06:38:51.224Z,7.22
2023-02-08T06:41:18.486Z,5.72
2023-02-08T06:43:45.083Z,6.32
2023-02-08T06:46:12.038Z,6.78
2023-02-08T06:48:38.928Z,8.23
2023-02-08T06:51:07.266Z,5.43
2023-02-08T06:53:34.131Z,7.50
2023-02-08T06:56:00.709Z,6.57
2023-02-08T06:58:27.480Z,7.13
2023-02-08T07:00:54.763Z,7.10
2023-02-08T07:03:22.608Z,6.68
2023-02-08T07:06:03.769Z,6.25
2023-02-08T07:08:33.088Z,7.40
2023-02-08T07:10:59.903Z,6.47
2023-02-08T07:13:26.792Z,5.78
2023-02-08T07:15:53.453Z,6.82
2023-02-08T07:18:20.201Z,6.07
2023-02-08T07:20:48.549Z,8.27
2023-02-08T07:23:15.134Z,7.50
2023-02-08T07:25:41.952Z,5.93
2023-02-08T07:28:08.657Z,7.85
2023-02-08T07:30:35.567Z,7.00
2023-02-08T07:33:02.216Z,7.93
2023-02-08T07:35:28.893Z,7.10
2023-02-08T07:37:55.697Z,8.55
2023-02-08T07:40:22.547Z,7.53
2023-02-08T07:42:49.185Z,7.72
2023-02-08T07:45:15.805Z,7.88
2023-02-08T07:47:42.448Z,6.40
2023-02-08T07:50:09.259Z,8.73
2023-02-08T07:52:36.146Z,8.07
2023-02-08T07:55:03.379Z,6.78
2023-02-08T07:57:30.050Z,6.63
2023-02-08T07:59:56.886Z,8.73
2023-02-08T08:02:23.821Z,8.35
2023-02-08T08:04:50.399Z,7.32
2023-02-08T08:07:17.125Z,6.57
2023-02-08T08:09:43.763Z,8.05
2023-02-08T08:12:10.583Z,8.02
2023-02-08T08:14:37.281Z,8.13
2023-02-08T08:17:03.892Z,7.18
2023-02-08T08:19:30.667Z,7.22
2023-02-08T08:21:57.301Z,5.88
2023-02-08T08:24:24.115Z,7.70
2023-02-08T08:26:50.783Z,9.43
2023-02-08T08:29:17.446Z,5.53
2023-02-08T08:31:44.691Z,7.18
2023-02-08T08:34:11.646Z,9.25
2023-02-08T08:36:38.320Z,7.65
2023-02-08T08:39:04.965Z,6.95
2023-02-08T08:41:31.776Z,8.07
2023-02-08T08:43:58.493Z,6.63
2023-02-08T08:46:25.257Z,9.07
2023-02-08T08:48:52.430Z,8.38
2023-02-08T08:51:19.363Z,8.38
2023-02-08T08:53:46.072Z,9.27
2023-02-08T08:56:15.278Z,8.60
2023-02-08T08:58:43.766Z,8.98
2023-02-08T09:01:10.427Z,7.65
2023-02-08T09:03:37.453Z,7.63
2023-02-08T09:06:04.400Z,8.98
2023-02-08T09:08:31.208Z,6.88
2023-02-08T09:11:04.010Z,7.68
2023-02-08T09:13:33.502Z,8.23
2023-02-08T09:16:05.304Z,7.55
2023-02-08T09:18:32.339Z,6.10
2023-02-08T09:20:59.163Z,7.70
2023-02-08T09:23:26.003Z,7.45
2023-02-08T09:25:52.607Z,6.70
2023-02-08T09:28:19.333Z,6.75
2023-02-08T09:30:48.308Z,8.07
2023-02-08T09:33:16.033Z,7.72
2023-02-08T09:35:42.966Z,7.25
2023-02-08T09:38:12.036Z,6.80
2023-02-08T09:40:49.479Z,7.18
2023-02-08T09:43:31.963Z,7.90
2023-02-08T09:46:08.258Z,7.85
2023-02-08T09:48:37.947Z,8.38
2023-02-08T09:51:15.047Z,6.15
2023-02-08T09:53:46.460Z,7.72
2023-02-08T09:56:16.878Z,7.22
2023-02-08T09:58:47.147Z,8.15
2023-02-08T10:01:21.708Z,8.25
2023-02-08T10:03:51.996Z,8.35
2023-02-08T10:06:20.455Z,8.00
2023-02-08T10:08:50.797Z,8.18
2023-02-08T10:11:43.399Z,7.85
2023-02-08T10:14:13.461Z,10.38
2023-02-08T10:17:02.429Z,8.35
2023-02-08T10:19:47.057Z,6.72
2023-02-08T10:22:38.649Z,8.07
2023-02-08T10:25:40.558Z,7.47
2023-02-08T10:28:24.279Z,7.65
2023-02-08T10:31:09.190Z,7.88
2023-02-08T10:33:50.056Z,6.50
2023-02-08T10:36:27.738Z,8.77
2023-02-08T10:38:56.420Z,6.95
2023-02-08T10:41:35.474Z,7.22
2023-02-08T10:44:14.207Z,7.95
2023-02-08T10:47:10.968Z,8.60
2023-02-08T10:50:07.890Z,8.45
2023-02-08T10:52:35.316Z,7.97
2023-02-08T10:55:02.396Z,7.68
2023-02-08T10:57:35.790Z,6.45
2023-02-08T11:00:08.122Z,9.05
2023-02-08T11:02:40.649Z,6.85
2023-02-08T11:05:14.077Z,6.57
2023-02-08T11:07:41.255Z,8.25
2023-02-08T11:10:25.106Z,6.35
2023-02-08T11:13:05.951Z,7.65
2023-02-08T11:16:00.941Z,6.95
2023-02-08T11:18:56.094Z,6.68
2023-02-08T11:21:34.843Z,7.93
2023-02-08T11:24:08.087Z,7.90
2023-02-08T11:26:38.843Z,7.57
2023-02-08T11:29:22.673Z,6.45
2023-02-08T11:31:55.514Z,6.80
2023-02-08T11:34:26.606Z,7.40
2023-02-08T11:36:53.691Z,9.82
2023-02-08T11:39:30.332Z,8.43
2023-02-08T11:42:00.999Z,9.27
2023-02-08T11:44:37.803Z,8.07
2023-02-08T11:47:08.024Z,7.38
2023-02-08T11:49:43.661Z,7.97
2023-02-08T11:52:39.479Z,8.00
2023-02-08T11:55:25.473Z,8.57
2023-02-08T11:57:57.694Z,8.52
2023-02-08T12:00:29.437Z,7.32
2023-02-08T12:03:01.935Z,7.00
2023-02-08T12:05:54.025Z,8.02
2023-02-08T12:08:36.683Z,6.45
2023-02-08T12:11:31.032Z,7.03
2023-02-08T12:14:27.558Z,7.57
2023-02-08T12:17:03.547Z,7.57
2023-02-08T12:19:44.664Z,7.20
2023-02-08T12:22:18.035Z,6.95
2023-02-08T12:25:19.601Z,7.55
2023-02-08T12:27:52.166Z,8.25
2023-02-08T12:30:39.106Z,6.88
2023-02-08T12:33:26.207Z,7.22
2023-02-08T12:36:13.658Z,7.22
2023-02-08T12:39:17.743Z,7.10
2023-02-08T12:42:04.840Z,7.28
2023-02-08T12:44:34.502Z,7.68
2023-02-08T12:47:22.640Z,7.18
2023-02-08T12:49:58.837Z,7.97
2023-02-08T12:52:38.949Z,7.13
2023-02-08T12:55:19.558Z,6.65
2023-02-08T12:57:54.838Z,6.93
2023-02-08T13:00:35.084Z,6.63
2023-02-08T13:03:16.829Z,7.15
2023-02-08T13:06:01.382Z,7.90
2023-02-08T13:08:43.238Z,7.35
2023-02-08T13:11:20.024Z,6.97
2023-02-08T13:13:57.726Z,7.40
2023-02-08T13:16:41.196Z,7.43
2023-02-08T13:19:59.037Z,6.53
2023-02-08T13:22:27.728Z,6.07
2023-02-08T13:25:06.360Z,6.38
2023-02-08T13:27:34.346Z,5.88
2023-02-08T13:30:01.517Z,6.35
2023-02-08T13:32:36.554Z,5.55
2023-02-08T13:35:11.456Z,7.07
2023-02-08T13:37:38.718Z,7.10
2023-02-08T13:40:08.283Z,6.07
2023-02-08T13:42:40.660Z,6.60
2023-02-08T13:45:22.521Z,6.13
2023-02-08T13:48:03.884Z,5.68
2023-02-08T13:50:54.097Z,6.47
2023-02-08T13:53:38.740Z,6.43
2023-02-08T13:56:09.267Z,5.78
2023-02-08T13:58:58.400Z,6.55
2023-02-08T14:01:28.542Z,6.00
2023-02-08T14:04:09.760Z,5.10
2023-02-08T14:06:47.483Z,6.90
2023-02-08T14:09:29.244Z,6.55
2023-02-08T14:12:19.319Z,5.50
2023-02-08T14:15:16.741Z,5.13
2023-02-08T14:17:49.012Z,5.93
2023-02-08T14:20:34.493Z,5.28
2023-02-08T14:23:05.301Z,5.97
2023-02-08T14:25:47.167Z,5.50
2023-02-08T14:28:34.998Z,5.47
2023-02-08T14:31:10.011Z,5.43
2023-02-08T14:33:40.432Z,5.15
2023-02-08T14:36:29.953Z,4.65
2023-02-08T14:39:08.524Z,5.07
2023-02-08T14:41:50.423Z,5.20
2023-02-08T14:44:38.727Z,5.07
2023-02-08T14:47:24.413Z,5.60
2023-02-08T14:50:13.664Z,6.07
2023-02-08T14:52:46.120Z,5.05
2023-02-08T14:55:17.627Z,5.63
2023-02-08T14:57:44.868Z,5.43
2023-02-08T15:00:22.736Z,5.82
2023-02-08T15:02:49.926Z,5.40
2023-02-08T15:05:27.855Z,4.93
2023-02-08T15:07:57.388Z,5.25
2023-02-08T15:10:26.623Z,5.13
2023-02-08T15:12:56.326Z,5.35
2023-02-08T15:15:27.638Z,5.18
2023-02-08T15:17:55.736Z,4.65
2023-02-08T15:20:29.646Z,5.10
2023-02-08T15:23:19.164Z,5.93
2023-02-08T15:25:55.845Z,5.13
2023-02-08T15:28:25.645Z,4.65
2023-02-08T15:30:55.017Z,5.80
2023-02-08T15:33:21.850Z,6.03
2023-02-08T15:36:06.158Z,5.00
2023-02-08T15:38:33.824Z,5.60
2023-02-08T15:41:07.246Z,5.03
2023-02-08T15:43:35.337Z,5.70
2023-02-08T15:46:23.453Z,5.60
2023-02-08T15:48:50.647Z,6.72
2023-02-08T15:51:20.138Z,6.10
2023-02-08T15:53:50.387Z,5.65
2023-02-08T15:56:36.786Z,5.35
2023-02-08T15:59:07.864Z,5.78
2023-02-08T16:01:34.724Z,5.82
2023-02-08T16:04:12.277Z,5.60
2023-02-08T16:06:50.466Z,5.65
2023-02-08T16:09:21.246Z,6.40
2023-02-08T16:11:49.983Z,7.32
2023-02-08T16:14:19.240Z,6.88
2023-02-08T16:16:52.313Z,6.55
2023-02-08T16:19:26.401Z,6.95
2023-02-08T16:21:55.410Z,6.47
2023-02-08T16:24:24.992Z,6.78
2023-02-08T16:26:56.281Z,6.72
2023-02-08T16:29:32.986Z,6.70
2023-02-08T16:32:13.246Z,6.28
2023-02-08T16:34:41.107Z,6.03
2023-02-08T16:37:22.943Z,6.47
2023-02-08T16:40:06.368Z,5.70
2023-02-08T16:42:43.157Z,7.57
2023-02-08T16:45:19.851Z,5.65
2023-02-08T16:47:54.810Z,6.53
2023-02-08T16:50:28.611Z,6.60
2023-02-08T16:53:03.867Z,6.32
2023-02-08T16:55:36.065Z,7.80
2023-02-08T16:58:02.742Z,6.55
2023-02-08T17:00:35.267Z,6.20
2023-02-08T17:03:02.243Z,6.70
2023-02-08T17:05:32.140Z,6.10
2023-02-08T17:07:59.510Z,5.80
2023-02-08T17:10:32.069Z,5.63
2023-02-08T17:13:19.972Z,6.35
2023-02-08T17:15:49.060Z,6.97
2023-02-08T17:18:15.964Z,7.25
2023-02-08T17:20:43.265Z,6.57
2023-02-08T17:23:09.962Z,7.07
2023-02-08T17:25:36.998Z,6.70
2023-02-08T17:28:11.921Z,5.63
2023-02-08T17:30:41.335Z,6.72
2023-02-08T17:33:11.658Z,5.20
2023-02-08T17:35:38.349Z,6.78
2023-02-08T17:38:05.988Z,5.90
2023-02-08T17:40:36.055Z,6.55
2023-02-08T17:43:04.203Z,6.28
2023-02-08T17:45:31.000Z,6.75
2023-02-08T17:48:00.403Z,5.72
2023-02-08T17:50:27.246Z,6.88
2023-02-08T17:52:54.165Z,6.60
2023-02-08T17:55:21.085Z,6.30
2023-02-08T17:57:47.991Z,5.10
2023-02-08T18:00:20.187Z,4.68
2023-02-08T18:02:50.837Z,5.80
2023-02-08T18:05:22.995Z,6.80
2023-02-08T18:07:51.646Z,5.20
2023-02-08T18:10:18.880Z,6.28
2023-02-08T18:12:45.683Z,5.40
2023-02-08T18:15:19.849Z,6.20
2023-02-08T18:17:50.707Z,5.28
2023-02-08T18:20:17.785Z,6.40
2023-02-08T18:22:44.918Z,5.70
2023-02-08T18:25:12.538Z,5.90
2023-02-08T18:27:39.567Z,7.00
2023-02-08T18:30:06.653Z,5.40
2023-02-08T18:32:33.816Z,6.70
2023-02-08T18:35:03.379Z,5.95
2023-02-08T18:37:30.738Z,6.03
2023-02-08T18:39:57.441Z,6.57
2023-02-08T18:42:24.552Z,7.03
2023-02-08T18:44:51.227Z,6.50
2023-02-08T18:47:18.410Z,6.88
2023-02-08T18:49:45.000Z,5.97
2023-02-08T18:52:15.715Z,6.57
2023-02-08T18:54:42.373Z,7.95
2023-02-08T18:57:12.461Z,6.38
2023-02-08T18:59:39.462Z,5.47
2023-02-08T19:02:11.812Z,7.15
2023-02-08T19:04:39.111Z,5.53
2023-02-08T19:07:06.662Z,6.40
2023-02-08T19:09:39.581Z,7.63
2023-02-08T19:12:07.419Z,6.78
2023-02-08T19:14:34.628Z,7.72
2023-02-08T19:17:02.175Z,7.60
2023-02-08T19:19:28.914Z,6.47
2023-02-08T19:21:55.463Z,8.57
2023-02-08T19:24:22.138Z,7.47
2023-02-08T19:26:48.866Z,7.78
2023-02-08T19:29:17.818Z,7.88
2023-02-08T19:31:45.298Z,9.35
2023-02-08T19:34:13.272Z,7.22
2023-02-08T19:36:57.772Z,8.45
2023-02-08T19:39:27.044Z,6.13
2023-02-08T19:41:54.825Z,7.03
2023-02-08T19:44:22.562Z,6.38
2023-02-08T19:46:56.639Z,8.15
2023-02-08T19:49:25.716Z,7.18
2023-02-08T19:51:52.809Z,7.95
2023-02-08T19:54:22.517Z,6.57
2023-02-08T19:56:54.510Z,6.72
2023-02-08T19:59:27.125Z,7.03
2023-02-08T20:01:55.043Z,7.53
2023-02-08T20:04:22.013Z,7.82
2023-02-08T20:06:51.768Z,6.53
2023-02-08T20:09:20.125Z,7.07
2023-02-08T20:11:57.749Z,7.70
2023-02-08T20:14:28.931Z,8.13
2023-02-08T20:16:56.130Z,6.78
2023-02-08T20:19:23.227Z,7.70
2023-02-08T20:21:50.129Z,8.57
2023-02-08T20:24:17.235Z,6.55
2023-02-08T20:26:46.609Z,6.82
2023-02-08T20:29:14.409Z,8.80
2023-02-08T20:31:43.368Z,7.00
2023-02-08T20:34:13.325Z,6.45
2023-02-08T20:36:44.079Z,8.43
2023-02-08T20:39:14.301Z,6.38
2023-02-08T20:41:44.181Z,7.68
2023-02-08T20:44:12.423Z,8.07
2023-02-08T20:46:39.134Z,6.38
2023-02-08T20:49:11.415Z,7.75
2023-02-08T20:51:39.978Z,9.88
2023-02-08T20:54:06.557Z,7.75
2023-02-08T20:56:36.006Z,6.97
2023-02-08T20:59:08.378Z,8.43
2023-02-08T21:01:36.238Z,8.27
2023-02-08T21:04:03.938Z,6.97
2023-02-08T21:06:36.716Z,7.25
2023-02-08T21:09:17.804Z,7.72
2023-02-08T21:11:45.267Z,8.18
2023-02-08T21:14:15.427Z,8.05
2023-02-08T21:16:42.168Z,8.25
2023-02-08T21:19:10.652Z,7.40
2023-02-08T21:21:37.222Z,8.63
2023-02-08T21:24:04.000Z,8.05
2023-02-08T21:26:30.805Z,7.80
2023-02-08T21:28:58.912Z,8.40
2023-02-08T21:31:26.351Z,7.60
2023-02-08T21:33:53.205Z,7.97
2023-02-08T21:36:22.290Z,6.75
2023-02-08T21:38:49.075Z,8.07
2023-02-08T21:41:21.513Z,7.93
2023-02-08T21:43:49.443Z,7.18
2023-02-08T21:46:17.282Z,8.68
2023-02-08T21:49:03.265Z,8.55
2023-02-08T21:51:49.108Z,7.75
2023-02-08T21:54:31.551Z,6.97
2023-02-08T21:56:59.866Z,7.35
2023-02-08T21:59:27.499Z,7.32
2023-02-08T22:01:54.086Z,6.80
2023-02-08T22:04:20.805Z,7.13
2023-02-08T22:06:50.362Z,8.45
2023-02-08T22:09:18.208Z,7.45
2023-02-08T22:11:45.557Z,6.05
2023-02-08T22:14:12.706Z,7.15
2023-02-08T22:16:40.002Z,7.65
2023-02-08T22:19:07.310Z,8.25
2023-02-08T22:21:34.584Z,6.55
2023-02-08T22:24:01.247Z,7.30
2023-02-08T22:26:27.941Z,7.45
2023-02-08T22:28:54.916Z,8.43
2023-02-08T22:31:21.976Z,7.00
2023-02-08T22:33:51.124Z,6.07
2023-02-08T22:36:17.930Z,6.43
2023-02-08T22:38:44.500Z,7.75
2023-02-08T22:41:13.121Z,6.82
2023-02-08T22:43:40.070Z,8.75
2023-02-08T22:46:07.457Z,7.40
2023-02-08T22:48:34.482Z,7.82
2023-02-08T22:51:09.289Z,7.82
2023-02-08T22:53:35.945Z,9.20
2023-02-08T22:56:02.960Z,8.23
2023-02-08T22:58:29.638Z,7.25
2023-02-08T23:00:56.703Z,7.55
2023-02-08T23:03:23.949Z,7.07
2023-02-08T23:05:51.768Z,6.45
2023-02-08T23:08:20.685Z,8.10
2023-02-08T23:10:47.736Z,8.43
2023-02-08T23:13:14.337Z,7.53
2023-02-08T23:15:43.572Z,8.05
2023-02-08T23:18:10.192Z,6.97
2023-02-08T23:20:38.911Z,7.60
2023-02-08T23:23:05.708Z,7.55
2023-02-08T23:25:32.525Z,7.53
2023-02-08T23:27:59.425Z,7.55
2023-02-08T23:30:26.077Z,5.93
2023-02-08T23:32:52.686Z,6.63
2023-02-08T23:35:19.283Z,8.40
2023-02-08T23:37:45.904Z,7.20
2023-02-08T23:40:12.562Z,8.95
2023-02-08T23:42:39.348Z,7.90
2023-02-08T23:45:06.525Z,9.18
2023-02-08T23:47:34.339Z,8.48
2023-02-08T23:50:01.035Z,7.55
2023-02-08T23:52:27.657Z,6.75
2023-02-08T23:54:54.217Z,8.90
2023-02-08T23:57:20.893Z,9.10
2023-02-08T23:59:47.653Z,7.10
